New York, NY

Saat: 03:52 PM EDT Tarih: 04 Ağustos 2015 (GMT -0400)
Murray Hill | | Change Station
CLOSE
Current Station
Kişisel Havadurumu İstasyonları
Location: New York, NY
Yükseklik: 98 ft
Nearby Weather Stations

Elev 98 ft 40.75 °N, 73.98 °W | Updated 16 seconds ago

Clear
Açık
88.3
Feels Like 87
N
2.0
Rüzgar Değişken Rüzgar from BKB
Gusts 22.0 mil

Bugün
High -- | Low -- F°
--% Chance of Precip.
Dün
High -- | Low -- F°
Precip. -- inç
5:55 AM 8:08 PM
Şişkin Ay, 75% visible
Basınç 29.84 inç
Görüş Uzaklığı 10.0 mil
Bulutlar Açık
Sıcaklık endeksi 87
Çiğ noktası 58
Nem oranı 36%
Yağış 0.36 inç
Kar Kalınlığı Not available.
9 out of 12
Pollen 7.80 out of 12
Hava Kalitesi Not available.
Flu Activity Not available.
METAR KNYC 041851Z AUTO 28008G16KT 240V320 10SM CLR 32/14 A2987 RMK AO2 SLP104 T03170139 $

More Conditions Fewer Conditions

Basınç 29.84 inç
Görüş Uzaklığı 10.0 mil
Bulutlar Açık
Sıcaklık endeksi 87
Çiğ noktası 58
Nem oranı 36%
Yağış 0.36 inç
Kar Kalınlığı Not available.
9 out of 12
Pollen 7.80 out of 12
Hava Kalitesi Not available.
Flu Activity Not available.
METAR KNYC 041851Z AUTO 28008G16KT 240V320 10SM CLR 32/14 A2987 RMK AO2 SLP104 T03170139 $

More Conditions Fewer Conditions

10-Day Weather Forecast

×

Almanac

Gökbilim

Aug. 04, 2015 Rise Set
Gerçek Zaman
Günlük Tan
Deniz Tanı
Geceyarısı Yıldız Zamanı
Ay
Görünür Işığın Uzunluğu
Günün Uzunluğu
Tomorrow will be .
, % of the Moon is Illuminated

Günün En Yüksekleri

State Highs State Lows

Community

WunderPhotos

Upload Photos

1,843,956 photos uploaded!

WunderBlogs® & News

Nearby

Hava Kalitesi

  Hava Kalitesi Hava Kalitesi Endeksi Kirletici
Not available.

Kar Kalınlığı

Station Depth Yükseklik

Earthquake Activity

Şehir Distance Mag. Time & Date
Minimum magnitude displayed is 2.5.

Coastal Water Temperatures

Yer Sıcaklık

Stations

Nearby Weather Stations

Station Location Sıcaklık Rüzgar Etkisi Çiğ noktası Nem oranı Rüzgar Precip. Elev Güncellenme Zamanı Biçim